sensor_id;sensor_type;location;lat;lon;timestamp;temperature;humidity
4366;DHT22;2196;47.422;9.656;2022-07-06T00:00:50;17.20;99.90
4366;DHT22;2196;47.422;9.656;2022-07-06T00:03:17;17.10;99.90
4366;DHT22;2196;47.422;9.656;2022-07-06T00:05:44;17.00;99.90
4366;DHT22;2196;47.422;9.656;2022-07-06T00:08:11;17.00;99.90
4366;DHT22;2196;47.422;9.656;2022-07-06T00:10:39;16.90;99.90
4366;DHT22;2196;47.422;9.656;2022-07-06T00:13:06;16.80;99.90
4366;DHT22;2196;47.422;9.656;2022-07-06T00:15:33;16.80;99.90
4366;DHT22;2196;47.422;9.656;2022-07-06T00:18:00;16.80;99.90
4366;DHT22;2196;47.422;9.656;2022-07-06T00:20:27;16.80;99.90
4366;DHT22;2196;47.422;9.656;2022-07-06T00:22:54;16.80;99.90
4366;DHT22;2196;47.422;9.656;2022-07-06T00:25:21;16.70;99.90
4366;DHT22;2196;47.422;9.656;2022-07-06T00:27:49;16.70;99.90
4366;DHT22;2196;47.422;9.656;2022-07-06T00:30:16;16.80;99.90
4366;DHT22;2196;47.422;9.656;2022-07-06T00:32:43;16.80;99.90
4366;DHT22;2196;47.422;9.656;2022-07-06T00:35:10;16.90;99.90
4366;DHT22;2196;47.422;9.656;2022-07-06T00:37:37;16.90;99.90
4366;DHT22;2196;47.422;9.656;2022-07-06T00:40:05;16.90;99.90
4366;DHT22;2196;47.422;9.656;2022-07-06T00:42:40;16.80;99.90
4366;DHT22;2196;47.422;9.656;2022-07-06T00:45:10;16.70;99.90
4366;DHT22;2196;47.422;9.656;2022-07-06T00:47:37;16.70;99.90
4366;DHT22;2196;47.422;9.656;2022-07-06T00:50:07;16.70;99.90
4366;DHT22;2196;47.422;9.656;2022-07-06T00:52:48;16.70;99.90
4366;DHT22;2196;47.422;9.656;2022-07-06T00:55:18;16.60;99.90
4366;DHT22;2196;47.422;9.656;2022-07-06T00:57:46;16.60;99.90
4366;DHT22;2196;47.422;9.656;2022-07-06T01:00:16;16.60;99.90
4366;DHT22;2196;47.422;9.656;2022-07-06T01:02:44;16.60;99.90
4366;DHT22;2196;47.422;9.656;2022-07-06T01:05:13;16.60;99.90
4366;DHT22;2196;47.422;9.656;2022-07-06T01:07:42;16.50;99.90
4366;DHT22;2196;47.422;9.656;2022-07-06T01:10:11;16.60;99.90
4366;DHT22;2196;47.422;9.656;2022-07-06T01:12:39;16.60;99.90
4366;DHT22;2196;47.422;9.656;2022-07-06T01:15:08;16.60;99.90
4366;DHT22;2196;47.422;9.656;2022-07-06T01:17:38;16.60;99.90
4366;DHT22;2196;47.422;9.656;2022-07-06T01:20:10;16.50;99.90
4366;DHT22;2196;47.422;9.656;2022-07-06T01:22:37;16.40;99.90
4366;DHT22;2196;47.422;9.656;2022-07-06T01:25:05;16.40;99.90
4366;DHT22;2196;47.422;9.656;2022-07-06T01:27:32;16.40;99.90
4366;DHT22;2196;47.422;9.656;2022-07-06T01:30:02;16.40;99.90
4366;DHT22;2196;47.422;9.656;2022-07-06T01:32:30;16.40;99.90
4366;DHT22;2196;47.422;9.656;2022-07-06T01:34:57;16.40;99.90
4366;DHT22;2196;47.422;9.656;2022-07-06T01:37:25;16.40;99.90
4366;DHT22;2196;47.422;9.656;2022-07-06T01:39:52;16.30;99.90
4366;DHT22;2196;47.422;9.656;2022-07-06T01:42:19;16.30;99.90
4366;DHT22;2196;47.422;9.656;2022-07-06T01:44:46;16.30;99.90
4366;DHT22;2196;47.422;9.656;2022-07-06T01:47:13;16.30;99.90
4366;DHT22;2196;47.422;9.656;2022-07-06T01:49:40;16.20;99.90
4366;DHT22;2196;47.422;9.656;2022-07-06T01:52:07;16.20;99.90
4366;DHT22;2196;47.422;9.656;2022-07-06T01:54:35;16.20;99.90
4366;DHT22;2196;47.422;9.656;2022-07-06T01:57:05;16.20;99.90
4366;DHT22;2196;47.422;9.656;2022-07-06T01:59:32;16.20;99.90
4366;DHT22;2196;47.422;9.656;2022-07-06T02:01:59;16.20;99.90
4366;DHT22;2196;47.422;9.656;2022-07-06T02:04:26;16.10;99.90
4366;DHT22;2196;47.422;9.656;2022-07-06T02:06:53;16.10;99.90
4366;DHT22;2196;47.422;9.656;2022-07-06T02:09:20;16.10;99.90
4366;DHT22;2196;47.422;9.656;2022-07-06T02:11:49;16.00;99.90
4366;DHT22;2196;47.422;9.656;2022-07-06T02:14:16;16.00;99.90
4366;DHT22;2196;47.422;9.656;2022-07-06T02:16:43;16.00;99.90
4366;DHT22;2196;47.422;9.656;2022-07-06T02:19:10;16.00;99.90
4366;DHT22;2196;47.422;9.656;2022-07-06T02:21:37;16.00;99.90
4366;DHT22;2196;47.422;9.656;2022-07-06T02:24:04;16.00;99.90
4366;DHT22;2196;47.422;9.656;2022-07-06T02:26:31;16.00;99.90
4366;DHT22;2196;47.422;9.656;2022-07-06T02:29:00;16.00;99.90
4366;DHT22;2196;47.422;9.656;2022-07-06T02:31:27;16.00;99.90
4366;DHT22;2196;47.422;9.656;2022-07-06T02:33:53;16.10;99.90
4366;DHT22;2196;47.422;9.656;2022-07-06T02:36:20;16.10;99.90
4366;DHT22;2196;47.422;9.656;2022-07-06T02:38:48;16.10;99.90
4366;DHT22;2196;47.422;9.656;2022-07-06T02:41:15;16.10;99.90
4366;DHT22;2196;47.422;9.656;2022-07-06T02:43:44;16.00;99.90
4366;DHT22;2196;47.422;9.656;2022-07-06T02:46:12;16.00;99.90
4366;DHT22;2196;47.422;9.656;2022-07-06T02:48:39;16.00;99.90
4366;DHT22;2196;47.422;9.656;2022-07-06T02:51:06;15.90;99.90
4366;DHT22;2196;47.422;9.656;2022-07-06T02:53:33;15.90;99.90
4366;DHT22;2196;47.422;9.656;2022-07-06T02:56:00;16.00;99.90
4366;DHT22;2196;47.422;9.656;2022-07-06T02:58:30;16.00;99.90
4366;DHT22;2196;47.422;9.656;2022-07-06T03:00:57;15.90;99.90
4366;DHT22;2196;47.422;9.656;2022-07-06T03:03:25;16.00;99.90
4366;DHT22;2196;47.422;9.656;2022-07-06T03:05:52;16.00;99.90
4366;DHT22;2196;47.422;9.656;2022-07-06T03:08:19;16.10;99.90
4366;DHT22;2196;47.422;9.656;2022-07-06T03:10:46;16.10;99.90
4366;DHT22;2196;47.422;9.656;2022-07-06T03:13:13;16.10;99.90
4366;DHT22;2196;47.422;9.656;2022-07-06T03:15:40;16.20;99.90
4366;DHT22;2196;47.422;9.656;2022-07-06T03:18:07;16.20;99.90
4366;DHT22;2196;47.422;9.656;2022-07-06T03:20:36;16.20;99.90
4366;DHT22;2196;47.422;9.656;2022-07-06T03:23:02;16.30;99.90
4366;DHT22;2196;47.422;9.656;2022-07-06T03:25:30;16.30;99.90
4366;DHT22;2196;47.422;9.656;2022-07-06T03:27:58;16.30;99.90
4366;DHT22;2196;47.422;9.656;2022-07-06T03:30:25;16.20;99.90
4366;DHT22;2196;47.422;9.656;2022-07-06T03:32:52;16.20;99.90
4366;DHT22;2196;47.422;9.656;2022-07-06T03:35:19;16.20;99.90
4366;DHT22;2196;47.422;9.656;2022-07-06T03:37:47;16.20;99.90
4366;DHT22;2196;47.422;9.656;2022-07-06T03:40:14;16.20;99.90
4366;DHT22;2196;47.422;9.656;2022-07-06T03:42:41;16.20;99.90
4366;DHT22;2196;47.422;9.656;2022-07-06T03:45:09;16.10;99.90
4366;DHT22;2196;47.422;9.656;2022-07-06T03:47:36;16.00;99.90
4366;DHT22;2196;47.422;9.656;2022-07-06T03:50:04;16.00;99.90
4366;DHT22;2196;47.422;9.656;2022-07-06T03:52:32;16.00;99.90
4366;DHT22;2196;47.422;9.656;2022-07-06T03:55:01;15.90;99.90
4366;DHT22;2196;47.422;9.656;2022-07-06T03:57:28;15.90;99.90
4366;DHT22;2196;47.422;9.656;2022-07-06T03:59:55;15.80;99.90
4366;DHT22;2196;47.422;9.656;2022-07-06T04:02:22;15.80;99.90
4366;DHT22;2196;47.422;9.656;2022-07-06T04:04:49;15.80;99.90
4366;DHT22;2196;47.422;9.656;2022-07-06T04:07:16;15.80;99.90
4366;DHT22;2196;47.422;9.656;2022-07-06T04:09:43;15.80;99.90
4366;DHT22;2196;47.422;9.656;2022-07-06T04:12:12;15.80;99.90
4366;DHT22;2196;47.422;9.656;2022-07-06T04:14:39;15.70;99.90
4366;DHT22;2196;47.422;9.656;2022-07-06T04:17:06;15.80;99.90
4366;DHT22;2196;47.422;9.656;2022-07-06T04:19:47;15.80;99.90
4366;DHT22;2196;47.422;9.656;2022-07-06T04:22:14;15.80;99.90
4366;DHT22;2196;47.422;9.656;2022-07-06T04:24:41;15.90;99.90
4366;DHT22;2196;47.422;9.656;2022-07-06T04:27:08;15.90;99.90
4366;DHT22;2196;47.422;9.656;2022-07-06T04:29:36;16.00;99.90
4366;DHT22;2196;47.422;9.656;2022-07-06T04:32:03;16.00;99.90
4366;DHT22;2196;47.422;9.656;2022-07-06T04:34:32;16.10;99.90
4366;DHT22;2196;47.422;9.656;2022-07-06T04:36:59;16.10;99.90
4366;DHT22;2196;47.422;9.656;2022-07-06T04:39:26;16.20;99.90
4366;DHT22;2196;47.422;9.656;2022-07-06T04:41:53;16.30;99.90
4366;DHT22;2196;47.422;9.656;2022-07-06T04:44:20;16.40;99.90
4366;DHT22;2196;47.422;9.656;2022-07-06T04:46:48;16.50;99.90
4366;DHT22;2196;47.422;9.656;2022-07-06T04:49:15;16.60;99.90
4366;DHT22;2196;47.422;9.656;2022-07-06T04:51:42;16.70;99.90
4366;DHT22;2196;47.422;9.656;2022-07-06T04:54:09;16.80;99.90
4366;DHT22;2196;47.422;9.656;2022-07-06T04:56:36;16.90;99.90
4366;DHT22;2196;47.422;9.656;2022-07-06T04:59:03;16.90;99.90
4366;DHT22;2196;47.422;9.656;2022-07-06T05:01:30;17.10;99.90
4366;DHT22;2196;47.422;9.656;2022-07-06T05:03:58;17.30;99.90
4366;DHT22;2196;47.422;9.656;2022-07-06T05:06:25;17.50;99.90
4366;DHT22;2196;47.422;9.656;2022-07-06T05:08:52;17.80;99.90
4366;DHT22;2196;47.422;9.656;2022-07-06T05:11:19;18.10;99.90
4366;DHT22;2196;47.422;9.656;2022-07-06T05:13:46;18.60;99.90
4366;DHT22;2196;47.422;9.656;2022-07-06T05:16:13;19.10;99.90
4366;DHT22;2196;47.422;9.656;2022-07-06T05:18:40;19.70;99.90
4366;DHT22;2196;47.422;9.656;2022-07-06T05:21:09;20.50;99.90
4366;DHT22;2196;47.422;9.656;2022-07-06T05:23:36;21.20;99.90
4366;DHT22;2196;47.422;9.656;2022-07-06T05:26:03;21.90;99.90
4366;DHT22;2196;47.422;9.656;2022-07-06T05:28:30;22.60;99.90
4366;DHT22;2196;47.422;9.656;2022-07-06T05:30:57;23.40;99.90
4366;DHT22;2196;47.422;9.656;2022-07-06T05:33:28;24.20;99.90
4366;DHT22;2196;47.422;9.656;2022-07-06T05:35:55;24.90;99.90
4366;DHT22;2196;47.422;9.656;2022-07-06T05:38:23;25.20;99.90
4366;DHT22;2196;47.422;9.656;2022-07-06T05:40:50;25.70;99.90
4366;DHT22;2196;47.422;9.656;2022-07-06T05:43:17;25.70;99.90
4366;DHT22;2196;47.422;9.656;2022-07-06T05:45:44;25.90;99.90
4366;DHT22;2196;47.422;9.656;2022-07-06T05:48:11;26.60;99.90
4366;DHT22;2196;47.422;9.656;2022-07-06T05:50:55;26.40;99.90
4366;DHT22;2196;47.422;9.656;2022-07-06T05:53:24;26.30;99.90
4366;DHT22;2196;47.422;9.656;2022-07-06T05:55:51;26.80;99.90
4366;DHT22;2196;47.422;9.656;2022-07-06T05:58:18;27.00;99.90
4366;DHT22;2196;47.422;9.656;2022-07-06T06:00:45;27.20;99.90
4366;DHT22;2196;47.422;9.656;2022-07-06T06:03:12;27.30;99.90
4366;DHT22;2196;47.422;9.656;2022-07-06T06:05:39;27.60;99.90
4366;DHT22;2196;47.422;9.656;2022-07-06T06:08:06;27.30;99.90
4366;DHT22;2196;47.422;9.656;2022-07-06T06:10:34;27.50;99.90
4366;DHT22;2196;47.422;9.656;2022-07-06T06:13:02;27.20;99.90
4366;DHT22;2196;47.422;9.656;2022-07-06T06:15:29;27.70;99.90
4366;DHT22;2196;47.422;9.656;2022-07-06T06:17:56;28.20;99.90
4366;DHT22;2196;47.422;9.656;2022-07-06T06:20:23;27.50;99.90
4366;DHT22;2196;47.422;9.656;2022-07-06T06:22:51;27.10;99.90
4366;DHT22;2196;47.422;9.656;2022-07-06T06:25:19;26.40;99.90
4366;DHT22;2196;47.422;9.656;2022-07-06T06:27:48;26.60;99.90
4366;DHT22;2196;47.422;9.656;2022-07-06T06:30:15;26.60;99.90
4366;DHT22;2196;47.422;9.656;2022-07-06T06:32:42;26.50;99.90
4366;DHT22;2196;47.422;9.656;2022-07-06T06:35:09;27.10;99.90
4366;DHT22;2196;47.422;9.656;2022-07-06T06:37:36;28.20;99.90
4366;DHT22;2196;47.422;9.656;2022-07-06T06:40:04;28.50;99.90
4366;DHT22;2196;47.422;9.656;2022-07-06T06:42:35;29.10;99.90
4366;DHT22;2196;47.422;9.656;2022-07-06T06:45:04;29.20;99.90
4366;DHT22;2196;47.422;9.656;2022-07-06T06:47:31;29.80;99.90
4366;DHT22;2196;47.422;9.656;2022-07-06T06:49:58;30.10;99.90
4366;DHT22;2196;47.422;9.656;2022-07-06T06:52:25;30.20;99.90
4366;DHT22;2196;47.422;9.656;2022-07-06T06:54:52;30.20;99.90
4366;DHT22;2196;47.422;9.656;2022-07-06T06:57:19;29.80;99.90
4366;DHT22;2196;47.422;9.656;2022-07-06T06:59:46;30.20;99.90
4366;DHT22;2196;47.422;9.656;2022-07-06T07:02:14;30.70;99.90
4366;DHT22;2196;47.422;9.656;2022-07-06T07:04:41;30.30;99.90
4366;DHT22;2196;47.422;9.656;2022-07-06T07:07:08;29.80;99.90
4366;DHT22;2196;47.422;9.656;2022-07-06T07:09:35;29.40;99.90
4366;DHT22;2196;47.422;9.656;2022-07-06T07:12:03;29.70;99.90
4366;DHT22;2196;47.422;9.656;2022-07-06T07:14:30;30.30;99.90
4366;DHT22;2196;47.422;9.656;2022-07-06T07:16:57;30.50;99.90
4366;DHT22;2196;47.422;9.656;2022-07-06T07:19:26;30.80;99.90
4366;DHT22;2196;47.422;9.656;2022-07-06T07:21:53;30.70;99.90
4366;DHT22;2196;47.422;9.656;2022-07-06T07:24:20;30.20;99.90
4366;DHT22;2196;47.422;9.656;2022-07-06T07:26:47;29.50;99.90
4366;DHT22;2196;47.422;9.656;2022-07-06T07:29:13;28.50;99.90
4366;DHT22;2196;47.422;9.656;2022-07-06T07:31:40;28.90;99.90
4366;DHT22;2196;47.422;9.656;2022-07-06T07:34:07;28.00;99.90
4366;DHT22;2196;47.422;9.656;2022-07-06T07:36:36;28.10;99.90
4366;DHT22;2196;47.422;9.656;2022-07-06T07:39:03;28.70;99.90
4366;DHT22;2196;47.422;9.656;2022-07-06T07:41:30;29.40;99.90
4366;DHT22;2196;47.422;9.656;2022-07-06T07:43:58;29.30;99.90
4366;DHT22;2196;47.422;9.656;2022-07-06T07:46:25;30.00;99.90
4366;DHT22;2196;47.422;9.656;2022-07-06T07:48:52;30.60;99.90
4366;DHT22;2196;47.422;9.656;2022-07-06T07:51:19;30.50;99.90
4366;DHT22;2196;47.422;9.656;2022-07-06T07:53:47;30.10;99.90
4366;DHT22;2196;47.422;9.656;2022-07-06T07:56:14;30.50;99.90
4366;DHT22;2196;47.422;9.656;2022-07-06T07:58:41;30.90;99.90
4366;DHT22;2196;47.422;9.656;2022-07-06T08:01:08;30.70;99.90
4366;DHT22;2196;47.422;9.656;2022-07-06T08:03:36;30.10;99.90
4366;DHT22;2196;47.422;9.656;2022-07-06T08:06:03;29.60;99.90
4366;DHT22;2196;47.422;9.656;2022-07-06T08:08:30;30.20;99.90
4366;DHT22;2196;47.422;9.656;2022-07-06T08:10:59;30.10;99.90
4366;DHT22;2196;47.422;9.656;2022-07-06T08:13:25;30.90;99.90
4366;DHT22;2196;47.422;9.656;2022-07-06T08:15:53;31.10;99.90
4366;DHT22;2196;47.422;9.656;2022-07-06T08:18:20;31.10;99.90
4366;DHT22;2196;47.422;9.656;2022-07-06T08:20:47;31.50;99.90
4366;DHT22;2196;47.422;9.656;2022-07-06T08:23:14;32.20;99.90
4366;DHT22;2196;47.422;9.656;2022-07-06T08:25:41;32.60;99.90
4366;DHT22;2196;47.422;9.656;2022-07-06T08:28:09;32.90;99.90
4366;DHT22;2196;47.422;9.656;2022-07-06T08:30:36;32.10;99.90
4366;DHT22;2196;47.422;9.656;2022-07-06T08:33:03;31.20;99.90
4366;DHT22;2196;47.422;9.656;2022-07-06T08:35:30;30.50;99.90
4366;DHT22;2196;47.422;9.656;2022-07-06T08:37:57;29.90;99.90
4366;DHT22;2196;47.422;9.656;2022-07-06T08:40:26;29.30;99.90
4366;DHT22;2196;47.422;9.656;2022-07-06T08:42:56;29.00;99.90
4366;DHT22;2196;47.422;9.656;2022-07-06T08:45:25;28.80;99.90
4366;DHT22;2196;47.422;9.656;2022-07-06T08:47:54;29.40;99.90
4366;DHT22;2196;47.422;9.656;2022-07-06T08:50:21;29.40;99.90
4366;DHT22;2196;47.422;9.656;2022-07-06T08:52:49;29.40;99.90
4366;DHT22;2196;47.422;9.656;2022-07-06T08:55:17;29.60;99.90
4366;DHT22;2196;47.422;9.656;2022-07-06T08:57:45;30.10;99.90
4366;DHT22;2196;47.422;9.656;2022-07-06T09:00:14;30.50;99.90
4366;DHT22;2196;47.422;9.656;2022-07-06T09:02:43;30.90;99.90
4366;DHT22;2196;47.422;9.656;2022-07-06T09:05:14;31.20;99.90
4366;DHT22;2196;47.422;9.656;2022-07-06T09:07:41;30.70;99.90
4366;DHT22;2196;47.422;9.656;2022-07-06T09:10:09;30.60;99.90
4366;DHT22;2196;47.422;9.656;2022-07-06T09:12:36;30.10;99.90
4366;DHT22;2196;47.422;9.656;2022-07-06T09:15:03;29.60;99.90
4366;DHT22;2196;47.422;9.656;2022-07-06T09:17:31;29.10;99.90
4366;DHT22;2196;47.422;9.656;2022-07-06T09:19:59;29.50;99.90
4366;DHT22;2196;47.422;9.656;2022-07-06T09:22:27;29.60;99.90
4366;DHT22;2196;47.422;9.656;2022-07-06T09:25:03;29.70;99.90
4366;DHT22;2196;47.422;9.656;2022-07-06T09:27:30;30.60;99.90
4366;DHT22;2196;47.422;9.656;2022-07-06T09:30:00;30.90;99.90
4366;DHT22;2196;47.422;9.656;2022-07-06T09:32:27;31.40;99.90
4366;DHT22;2196;47.422;9.656;2022-07-06T09:34:54;31.40;99.90
4366;DHT22;2196;47.422;9.656;2022-07-06T09:37:23;31.50;99.90
4366;DHT22;2196;47.422;9.656;2022-07-06T09:39:50;31.40;99.90
4366;DHT22;2196;47.422;9.656;2022-07-06T09:42:24;31.00;99.90
4366;DHT22;2196;47.422;9.656;2022-07-06T09:44:52;30.90;99.90
4366;DHT22;2196;47.422;9.656;2022-07-06T09:47:20;30.60;99.90
4366;DHT22;2196;47.422;9.656;2022-07-06T09:49:47;31.20;99.90
4366;DHT22;2196;47.422;9.656;2022-07-06T09:52:14;31.30;99.90
4366;DHT22;2196;47.422;9.656;2022-07-06T09:54:48;31.40;99.90
4366;DHT22;2196;47.422;9.656;2022-07-06T09:57:15;31.50;99.90
4366;DHT22;2196;47.422;9.656;2022-07-06T09:59:42;31.40;99.90
4366;DHT22;2196;47.422;9.656;2022-07-06T10:02:16;31.50;99.90
4366;DHT22;2196;47.422;9.656;2022-07-06T10:04:44;31.70;99.90
4366;DHT22;2196;47.422;9.656;2022-07-06T10:07:12;31.90;97.60
4366;DHT22;2196;47.422;9.656;2022-07-06T10:09:41;32.00;97.90
4366;DHT22;2196;47.422;9.656;2022-07-06T10:12:11;32.10;97.40
4366;DHT22;2196;47.422;9.656;2022-07-06T10:14:40;32.10;98.90
4366;DHT22;2196;47.422;9.656;2022-07-06T10:17:07;31.40;98.60
4366;DHT22;2196;47.422;9.656;2022-07-06T10:19:35;30.70;99.00
4366;DHT22;2196;47.422;9.656;2022-07-06T10:22:03;30.20;99.90
4366;DHT22;2196;47.422;9.656;2022-07-06T10:24:31;29.80;99.90
4366;DHT22;2196;47.422;9.656;2022-07-06T10:26:59;29.80;99.90
4366;DHT22;2196;47.422;9.656;2022-07-06T10:29:28;30.30;99.70
4366;DHT22;2196;47.422;9.656;2022-07-06T10:31:57;30.70;98.50
4366;DHT22;2196;47.422;9.656;2022-07-06T10:34:24;30.20;99.90
4366;DHT22;2196;47.422;9.656;2022-07-06T10:36:53;29.00;99.90
4366;DHT22;2196;47.422;9.656;2022-07-06T10:39:32;28.90;99.90
4366;DHT22;2196;47.422;9.656;2022-07-06T10:42:44;28.30;99.90
4366;DHT22;2196;47.422;9.656;2022-07-06T10:45:20;28.60;99.90
4366;DHT22;2196;47.422;9.656;2022-07-06T10:47:48;28.80;99.90
4366;DHT22;2196;47.422;9.656;2022-07-06T10:50:35;29.00;99.90
4366;DHT22;2196;47.422;9.656;2022-07-06T10:53:02;28.70;99.90
4366;DHT22;2196;47.422;9.656;2022-07-06T10:55:39;28.80;99.90
4366;DHT22;2196;47.422;9.656;2022-07-06T10:58:07;29.00;97.90
4366;DHT22;2196;47.422;9.656;2022-07-06T11:00:59;29.20;98.90
4366;DHT22;2196;47.422;9.656;2022-07-06T11:03:34;28.90;97.50
4366;DHT22;2196;47.422;9.656;2022-07-06T11:06:05;28.10;99.70
4366;DHT22;2196;47.422;9.656;2022-07-06T11:09:00;27.90;99.90
4366;DHT22;2196;47.422;9.656;2022-07-06T11:11:39;28.00;99.80
4366;DHT22;2196;47.422;9.656;2022-07-06T11:14:08;28.00;98.90
4366;DHT22;2196;47.422;9.656;2022-07-06T11:16:39;28.10;99.90
4366;DHT22;2196;47.422;9.656;2022-07-06T11:19:08;28.00;99.90
4366;DHT22;2196;47.422;9.656;2022-07-06T11:21:41;27.70;99.90
4366;DHT22;2196;47.422;9.656;2022-07-06T11:24:12;27.60;99.90
4366;DHT22;2196;47.422;9.656;2022-07-06T11:26:41;27.30;99.90
4366;DHT22;2196;47.422;9.656;2022-07-06T11:29:11;27.10;99.90
4366;DHT22;2196;47.422;9.656;2022-07-06T11:31:40;26.90;99.90
4366;DHT22;2196;47.422;9.656;2022-07-06T11:34:09;26.80;99.90
4366;DHT22;2196;47.422;9.656;2022-07-06T11:36:37;26.70;99.90
4366;DHT22;2196;47.422;9.656;2022-07-06T11:39:05;26.60;99.90
4366;DHT22;2196;47.422;9.656;2022-07-06T11:41:32;26.60;99.90
4366;DHT22;2196;47.422;9.656;2022-07-06T11:44:00;26.60;99.90
4366;DHT22;2196;47.422;9.656;2022-07-06T11:46:28;26.60;99.90
4366;DHT22;2196;47.422;9.656;2022-07-06T11:48:58;26.60;99.90
4366;DHT22;2196;47.422;9.656;2022-07-06T11:51:26;26.20;99.90
4366;DHT22;2196;47.422;9.656;2022-07-06T11:53:54;26.40;99.80
4366;DHT22;2196;47.422;9.656;2022-07-06T11:56:23;26.40;99.90
4366;DHT22;2196;47.422;9.656;2022-07-06T11:58:53;26.40;99.90
4366;DHT22;2196;47.422;9.656;2022-07-06T12:01:21;26.50;97.70
4366;DHT22;2196;47.422;9.656;2022-07-06T12:03:49;26.50;99.90
4366;DHT22;2196;47.422;9.656;2022-07-06T12:06:19;26.60;99.90
4366;DHT22;2196;47.422;9.656;2022-07-06T12:08:48;26.60;95.90
4366;DHT22;2196;47.422;9.656;2022-07-06T12:11:23;26.50;94.90
4366;DHT22;2196;47.422;9.656;2022-07-06T12:13:52;26.50;99.90
4366;DHT22;2196;47.422;9.656;2022-07-06T12:16:20;26.60;99.70
4366;DHT22;2196;47.422;9.656;2022-07-06T12:18:50;26.50;99.90
4366;DHT22;2196;47.422;9.656;2022-07-06T12:21:19;26.30;94.90
4366;DHT22;2196;47.422;9.656;2022-07-06T12:23:49;26.30;96.10
4366;DHT22;2196;47.422;9.656;2022-07-06T12:26:17;26.30;98.60
4366;DHT22;2196;47.422;9.656;2022-07-06T12:28:46;26.10;95.70
4366;DHT22;2196;47.422;9.656;2022-07-06T12:31:31;25.90;99.90
4366;DHT22;2196;47.422;9.656;2022-07-06T12:33:59;25.80;99.10
4366;DHT22;2196;47.422;9.656;2022-07-06T12:36:27;25.60;97.70
4366;DHT22;2196;47.422;9.656;2022-07-06T12:38:54;25.60;97.60
4366;DHT22;2196;47.422;9.656;2022-07-06T12:41:30;25.70;98.10
4366;DHT22;2196;47.422;9.656;2022-07-06T12:44:05;25.50;98.50
4366;DHT22;2196;47.422;9.656;2022-07-06T12:46:34;25.50;99.90
4366;DHT22;2196;47.422;9.656;2022-07-06T12:49:06;25.60;98.80
4366;DHT22;2196;47.422;9.656;2022-07-06T12:52:09;25.60;96.80
4366;DHT22;2196;47.422;9.656;2022-07-06T12:54:41;25.60;96.30
4366;DHT22;2196;47.422;9.656;2022-07-06T12:57:10;25.50;95.30
4366;DHT22;2196;47.422;9.656;2022-07-06T12:59:40;25.50;97.40
4366;DHT22;2196;47.422;9.656;2022-07-06T13:02:09;25.70;96.80
4366;DHT22;2196;47.422;9.656;2022-07-06T13:04:36;25.80;96.00
4366;DHT22;2196;47.422;9.656;2022-07-06T13:07:04;25.70;97.50
4366;DHT22;2196;47.422;9.656;2022-07-06T13:09:33;25.60;98.80
4366;DHT22;2196;47.422;9.656;2022-07-06T13:12:00;25.60;97.70
4366;DHT22;2196;47.422;9.656;2022-07-06T13:14:27;25.60;97.80
4366;DHT22;2196;47.422;9.656;2022-07-06T13:16:54;25.50;99.20
4366;DHT22;2196;47.422;9.656;2022-07-06T13:19:21;25.60;98.20
4366;DHT22;2196;47.422;9.656;2022-07-06T13:21:48;25.70;97.80
4366;DHT22;2196;47.422;9.656;2022-07-06T13:24:15;25.60;97.00
4366;DHT22;2196;47.422;9.656;2022-07-06T13:26:44;25.60;97.40
4366;DHT22;2196;47.422;9.656;2022-07-06T13:29:12;25.60;96.90
4366;DHT22;2196;47.422;9.656;2022-07-06T13:31:39;25.70;96.40
4366;DHT22;2196;47.422;9.656;2022-07-06T13:34:07;25.80;96.50
4366;DHT22;2196;47.422;9.656;2022-07-06T13:36:35;25.70;95.80
4366;DHT22;2196;47.422;9.656;2022-07-06T13:39:03;25.70;95.40
4366;DHT22;2196;47.422;9.656;2022-07-06T13:41:30;25.80;94.80
4366;DHT22;2196;47.422;9.656;2022-07-06T13:43:59;25.80;94.80
4366;DHT22;2196;47.422;9.656;2022-07-06T13:46:26;25.70;95.60
4366;DHT22;2196;47.422;9.656;2022-07-06T13:48:54;25.60;96.60
4366;DHT22;2196;47.422;9.656;2022-07-06T13:51:22;25.50;94.80
4366;DHT22;2196;47.422;9.656;2022-07-06T13:53:49;25.50;96.10
4366;DHT22;2196;47.422;9.656;2022-07-06T13:56:17;25.50;95.60
4366;DHT22;2196;47.422;9.656;2022-07-06T13:58:44;25.50;95.60
4366;DHT22;2196;47.422;9.656;2022-07-06T14:01:13;25.30;95.10
4366;DHT22;2196;47.422;9.656;2022-07-06T14:03:40;25.50;95.70
4366;DHT22;2196;47.422;9.656;2022-07-06T14:06:07;25.50;96.20
4366;DHT22;2196;47.422;9.656;2022-07-06T14:08:35;25.40;95.10
4366;DHT22;2196;47.422;9.656;2022-07-06T14:11:03;25.50;98.50
4366;DHT22;2196;47.422;9.656;2022-07-06T14:13:31;25.60;98.40
4366;DHT22;2196;47.422;9.656;2022-07-06T14:15:59;25.50;97.80
4366;DHT22;2196;47.422;9.656;2022-07-06T14:18:27;25.60;97.50
4366;DHT22;2196;47.422;9.656;2022-07-06T14:20:54;25.60;96.30
4366;DHT22;2196;47.422;9.656;2022-07-06T14:23:22;25.60;95.90
4366;DHT22;2196;47.422;9.656;2022-07-06T14:25:50;25.60;97.20
4366;DHT22;2196;47.422;9.656;2022-07-06T14:28:17;25.70;96.80
4366;DHT22;2196;47.422;9.656;2022-07-06T14:30:46;25.80;97.10
4366;DHT22;2196;47.422;9.656;2022-07-06T14:33:14;25.70;96.60
4366;DHT22;2196;47.422;9.656;2022-07-06T14:35:44;25.60;95.80
4366;DHT22;2196;47.422;9.656;2022-07-06T14:38:14;25.70;99.40
4366;DHT22;2196;47.422;9.656;2022-07-06T14:40:41;25.60;96.30
4366;DHT22;2196;47.422;9.656;2022-07-06T14:43:09;25.60;95.30
4366;DHT22;2196;47.422;9.656;2022-07-06T14:45:36;25.70;96.60
4366;DHT22;2196;47.422;9.656;2022-07-06T14:48:04;25.80;97.70
4366;DHT22;2196;47.422;9.656;2022-07-06T14:50:32;26.00;96.40
4366;DHT22;2196;47.422;9.656;2022-07-06T14:53:01;26.00;96.80
4366;DHT22;2196;47.422;9.656;2022-07-06T14:55:29;25.90;96.70
4366;DHT22;2196;47.422;9.656;2022-07-06T14:57:56;26.00;97.60
4366;DHT22;2196;47.422;9.656;2022-07-06T15:00:23;25.80;96.70
4366;DHT22;2196;47.422;9.656;2022-07-06T15:02:50;25.80;95.70
4366;DHT22;2196;47.422;9.656;2022-07-06T15:05:16;25.70;97.20
4366;DHT22;2196;47.422;9.656;2022-07-06T15:07:43;25.70;97.80
4366;DHT22;2196;47.422;9.656;2022-07-06T15:10:12;25.70;96.20
4366;DHT22;2196;47.422;9.656;2022-07-06T15:12:39;25.60;97.30
4366;DHT22;2196;47.422;9.656;2022-07-06T15:15:07;25.50;97.50
4366;DHT22;2196;47.422;9.656;2022-07-06T15:17:34;25.50;97.70
4366;DHT22;2196;47.422;9.656;2022-07-06T15:20:01;25.50;98.60
4366;DHT22;2196;47.422;9.656;2022-07-06T15:22:28;25.50;98.70
4366;DHT22;2196;47.422;9.656;2022-07-06T15:24:54;25.40;97.10
4366;DHT22;2196;47.422;9.656;2022-07-06T15:27:23;25.40;98.00
4366;DHT22;2196;47.422;9.656;2022-07-06T15:29:50;25.50;98.20
4366;DHT22;2196;47.422;9.656;2022-07-06T15:32:17;25.40;97.70
4366;DHT22;2196;47.422;9.656;2022-07-06T15:34:44;25.50;97.30
4366;DHT22;2196;47.422;9.656;2022-07-06T15:37:11;25.60;98.90
4366;DHT22;2196;47.422;9.656;2022-07-06T15:39:38;25.60;98.20
4366;DHT22;2196;47.422;9.656;2022-07-06T15:42:05;25.60;98.30
4366;DHT22;2196;47.422;9.656;2022-07-06T15:44:34;25.50;97.60
4366;DHT22;2196;47.422;9.656;2022-07-06T15:47:05;25.50;97.20
4366;DHT22;2196;47.422;9.656;2022-07-06T15:49:33;25.60;97.90
4366;DHT22;2196;47.422;9.656;2022-07-06T15:52:00;25.60;97.50
4366;DHT22;2196;47.422;9.656;2022-07-06T15:54:27;25.50;97.40
4366;DHT22;2196;47.422;9.656;2022-07-06T15:56:55;25.50;96.70
4366;DHT22;2196;47.422;9.656;2022-07-06T15:59:22;25.40;98.00
4366;DHT22;2196;47.422;9.656;2022-07-06T16:01:50;25.50;98.80
4366;DHT22;2196;47.422;9.656;2022-07-06T16:04:17;25.50;97.20
4366;DHT22;2196;47.422;9.656;2022-07-06T16:06:45;25.50;97.20
4366;DHT22;2196;47.422;9.656;2022-07-06T16:09:12;25.50;97.90